sensor_id;sensor_type;location;lat;lon;timestamp;P1;durP1;ratioP1;P2;durP2;ratioP2
13805;SDS011;6974;53.606;9.872;2023-04-25T00:02:23;12.00;;;5.10;;
13805;SDS011;6974;53.606;9.872;2023-04-25T00:04:52;9.47;;;4.67;;
13805;SDS011;6974;53.606;9.872;2023-04-25T00:07:23;11.07;;;4.70;;
13805;SDS011;6974;53.606;9.872;2023-04-25T00:09:51;14.63;;;5.30;;
13805;SDS011;6974;53.606;9.872;2023-04-25T00:12:19;13.73;;;5.17;;
13805;SDS011;6974;53.606;9.872;2023-04-25T00:14:46;17.83;;;5.70;;
13805;SDS011;6974;53.606;9.872;2023-04-25T00:17:14;13.70;;;4.97;;
13805;SDS011;6974;53.606;9.872;2023-04-25T00:19:41;17.87;;;5.40;;
13805;SDS011;6974;53.606;9.872;2023-04-25T00:22:11;15.57;;;5.20;;
13805;SDS011;6974;53.606;9.872;2023-04-25T00:24:38;16.10;;;5.27;;
13805;SDS011;6974;53.606;9.872;2023-04-25T00:27:06;19.23;;;5.73;;
13805;SDS011;6974;53.606;9.872;2023-04-25T00:29:33;16.60;;;4.83;;
13805;SDS011;6974;53.606;9.872;2023-04-25T00:32:01;18.47;;;4.90;;
13805;SDS011;6974;53.606;9.872;2023-04-25T00:34:29;17.07;;;5.27;;
13805;SDS011;6974;53.606;9.872;2023-04-25T00:36:56;16.30;;;4.53;;
13805;SDS011;6974;53.606;9.872;2023-04-25T00:39:25;17.40;;;5.23;;
13805;SDS011;6974;53.606;9.872;2023-04-25T00:41:51;17.37;;;5.03;;
13805;SDS011;6974;53.606;9.872;2023-04-25T00:44:21;17.07;;;5.33;;
13805;SDS011;6974;53.606;9.872;2023-04-25T00:46:48;15.20;;;4.90;;
13805;SDS011;6974;53.606;9.872;2023-04-25T00:49:16;17.40;;;5.17;;
13805;SDS011;6974;53.606;9.872;2023-04-25T00:51:43;21.67;;;5.50;;
13805;SDS011;6974;53.606;9.872;2023-04-25T00:54:11;11.83;;;4.80;;
13805;SDS011;6974;53.606;9.872;2023-04-25T00:56:40;19.43;;;4.90;;
13805;SDS011;6974;53.606;9.872;2023-04-25T00:59:10;18.20;;;4.90;;
13805;SDS011;6974;53.606;9.872;2023-04-25T01:01:39;20.10;;;5.47;;
13805;SDS011;6974;53.606;9.872;2023-04-25T01:04:06;21.43;;;5.13;;
13805;SDS011;6974;53.606;9.872;2023-04-25T01:06:34;14.63;;;4.90;;
13805;SDS011;6974;53.606;9.872;2023-04-25T01:09:02;20.10;;;5.97;;
13805;SDS011;6974;53.606;9.872;2023-04-25T01:11:30;21.43;;;6.60;;
13805;SDS011;6974;53.606;9.872;2023-04-25T01:13:58;14.73;;;5.20;;
13805;SDS011;6974;53.606;9.872;2023-04-25T01:16:27;24.67;;;6.27;;
13805;SDS011;6974;53.606;9.872;2023-04-25T01:18:54;18.63;;;5.53;;
13805;SDS011;6974;53.606;9.872;2023-04-25T01:21:24;20.60;;;5.67;;
13805;SDS011;6974;53.606;9.872;2023-04-25T01:23:54;16.87;;;5.60;;
13805;SDS011;6974;53.606;9.872;2023-04-25T01:26:23;20.00;;;5.60;;
13805;SDS011;6974;53.606;9.872;2023-04-25T01:28:51;17.87;;;5.13;;
13805;SDS011;6974;53.606;9.872;2023-04-25T01:31:20;19.00;;;5.57;;
13805;SDS011;6974;53.606;9.872;2023-04-25T01:33:48;17.83;;;5.57;;
13805;SDS011;6974;53.606;9.872;2023-04-25T01:36:15;16.20;;;5.57;;
13805;SDS011;6974;53.606;9.872;2023-04-25T01:38:43;23.93;;;6.20;;
13805;SDS011;6974;53.606;9.872;2023-04-25T01:41:12;20.63;;;5.60;;
13805;SDS011;6974;53.606;9.872;2023-04-25T01:43:40;18.77;;;5.70;;
13805;SDS011;6974;53.606;9.872;2023-04-25T01:46:07;19.40;;;5.77;;
13805;SDS011;6974;53.606;9.872;2023-04-25T01:48:34;17.13;;;5.17;;
13805;SDS011;6974;53.606;9.872;2023-04-25T01:51:01;17.00;;;5.23;;
13805;SDS011;6974;53.606;9.872;2023-04-25T01:53:28;14.43;;;4.87;;
13805;SDS011;6974;53.606;9.872;2023-04-25T01:55:57;22.47;;;5.20;;
13805;SDS011;6974;53.606;9.872;2023-04-25T01:58:24;22.17;;;5.90;;
13805;SDS011;6974;53.606;9.872;2023-04-25T02:00:51;20.37;;;5.67;;
13805;SDS011;6974;53.606;9.872;2023-04-25T02:03:18;22.43;;;5.57;;
13805;SDS011;6974;53.606;9.872;2023-04-25T02:05:45;17.80;;;5.43;;
13805;SDS011;6974;53.606;9.872;2023-04-25T02:08:13;22.60;;;5.73;;
13805;SDS011;6974;53.606;9.872;2023-04-25T02:10:40;22.30;;;6.00;;
13805;SDS011;6974;53.606;9.872;2023-04-25T02:13:09;17.37;;;5.20;;
13805;SDS011;6974;53.606;9.872;2023-04-25T02:15:36;18.43;;;5.53;;
13805;SDS011;6974;53.606;9.872;2023-04-25T02:18:03;18.33;;;5.37;;
13805;SDS011;6974;53.606;9.872;2023-04-25T02:20:31;21.53;;;5.57;;
13805;SDS011;6974;53.606;9.872;2023-04-25T02:22:59;18.03;;;5.17;;
13805;SDS011;6974;53.606;9.872;2023-04-25T02:25:26;17.63;;;5.43;;
13805;SDS011;6974;53.606;9.872;2023-04-25T02:27:53;19.80;;;5.53;;
13805;SDS011;6974;53.606;9.872;2023-04-25T02:30:24;18.13;;;4.73;;
13805;SDS011;6974;53.606;9.872;2023-04-25T02:32:51;22.20;;;6.07;;
13805;SDS011;6974;53.606;9.872;2023-04-25T02:35:19;17.13;;;5.53;;
13805;SDS011;6974;53.606;9.872;2023-04-25T02:37:46;19.90;;;5.73;;
13805;SDS011;6974;53.606;9.872;2023-04-25T02:40:13;21.83;;;5.40;;
13805;SDS011;6974;53.606;9.872;2023-04-25T02:42:41;16.37;;;4.77;;
13805;SDS011;6974;53.606;9.872;2023-04-25T02:45:10;20.30;;;5.57;;
13805;SDS011;6974;53.606;9.872;2023-04-25T02:47:39;20.50;;;5.73;;
13805;SDS011;6974;53.606;9.872;2023-04-25T02:50:06;21.93;;;6.10;;
13805;SDS011;6974;53.606;9.872;2023-04-25T02:52:34;20.20;;;5.40;;
13805;SDS011;6974;53.606;9.872;2023-04-25T02:55:01;17.20;;;4.87;;
13805;SDS011;6974;53.606;9.872;2023-04-25T02:57:28;21.77;;;5.23;;
13805;SDS011;6974;53.606;9.872;2023-04-25T02:59:55;16.80;;;4.90;;
13805;SDS011;6974;53.606;9.872;2023-04-25T03:02:22;16.00;;;4.50;;
13805;SDS011;6974;53.606;9.872;2023-04-25T03:04:51;14.73;;;4.80;;
13805;SDS011;6974;53.606;9.872;2023-04-25T03:07:19;17.20;;;5.57;;
13805;SDS011;6974;53.606;9.872;2023-04-25T03:09:46;13.93;;;4.23;;
13805;SDS011;6974;53.606;9.872;2023-04-25T03:12:13;18.83;;;5.33;;
13805;SDS011;6974;53.606;9.872;2023-04-25T03:14:40;18.77;;;4.70;;
13805;SDS011;6974;53.606;9.872;2023-04-25T03:17:07;17.67;;;5.07;;
13805;SDS011;6974;53.606;9.872;2023-04-25T03:19:35;14.93;;;4.57;;
13805;SDS011;6974;53.606;9.872;2023-04-25T03:22:04;14.43;;;4.93;;
13805;SDS011;6974;53.606;9.872;2023-04-25T03:24:31;10.93;;;4.43;;
13805;SDS011;6974;53.606;9.872;2023-04-25T03:26:58;14.73;;;4.37;;
13805;SDS011;6974;53.606;9.872;2023-04-25T03:29:25;13.67;;;4.27;;
13805;SDS011;6974;53.606;9.872;2023-04-25T03:31:53;12.07;;;4.53;;
13805;SDS011;6974;53.606;9.872;2023-04-25T03:34:20;12.03;;;4.63;;
13805;SDS011;6974;53.606;9.872;2023-04-25T03:36:49;17.13;;;4.73;;
13805;SDS011;6974;53.606;9.872;2023-04-25T03:39:17;15.77;;;5.00;;
13805;SDS011;6974;53.606;9.872;2023-04-25T03:41:44;18.10;;;4.10;;
13805;SDS011;6974;53.606;9.872;2023-04-25T03:44:11;13.63;;;4.37;;
13805;SDS011;6974;53.606;9.872;2023-04-25T03:46:38;15.37;;;4.70;;
13805;SDS011;6974;53.606;9.872;2023-04-25T03:49:06;15.43;;;4.57;;
13805;SDS011;6974;53.606;9.872;2023-04-25T03:51:33;12.83;;;3.67;;
13805;SDS011;6974;53.606;9.872;2023-04-25T03:54:00;14.83;;;4.33;;
13805;SDS011;6974;53.606;9.872;2023-04-25T03:56:28;13.90;;;4.37;;
13805;SDS011;6974;53.606;9.872;2023-04-25T03:58:55;15.80;;;4.90;;
13805;SDS011;6974;53.606;9.872;2023-04-25T04:01:23;16.13;;;5.20;;
13805;SDS011;6974;53.606;9.872;2023-04-25T04:03:50;18.83;;;4.97;;
13805;SDS011;6974;53.606;9.872;2023-04-25T04:06:17;16.63;;;4.53;;
13805;SDS011;6974;53.606;9.872;2023-04-25T04:08:45;14.33;;;4.70;;
13805;SDS011;6974;53.606;9.872;2023-04-25T04:11:12;12.93;;;4.43;;
13805;SDS011;6974;53.606;9.872;2023-04-25T04:13:41;11.37;;;4.00;;
13805;SDS011;6974;53.606;9.872;2023-04-25T04:16:07;13.07;;;3.97;;
13805;SDS011;6974;53.606;9.872;2023-04-25T04:18:35;9.97;;;3.87;;
13805;SDS011;6974;53.606;9.872;2023-04-25T04:21:02;15.00;;;4.43;;
13805;SDS011;6974;53.606;9.872;2023-04-25T04:23:29;12.50;;;4.47;;
13805;SDS011;6974;53.606;9.872;2023-04-25T04:25:58;12.73;;;3.60;;
13805;SDS011;6974;53.606;9.872;2023-04-25T04:28:26;13.00;;;4.40;;
13805;SDS011;6974;53.606;9.872;2023-04-25T04:30:54;13.10;;;4.30;;
13805;SDS011;6974;53.606;9.872;2023-04-25T04:33:21;17.43;;;4.50;;
13805;SDS011;6974;53.606;9.872;2023-04-25T04:35:48;12.33;;;3.80;;
13805;SDS011;6974;53.606;9.872;2023-04-25T04:38:17;15.33;;;3.83;;
13805;SDS011;6974;53.606;9.872;2023-04-25T04:40:44;11.27;;;3.77;;
13805;SDS011;6974;53.606;9.872;2023-04-25T04:43:13;21.80;;;4.33;;
13805;SDS011;6974;53.606;9.872;2023-04-25T04:45:42;12.17;;;3.97;;
13805;SDS011;6974;53.606;9.872;2023-04-25T04:48:11;13.90;;;4.07;;
13805;SDS011;6974;53.606;9.872;2023-04-25T04:50:39;13.23;;;3.93;;
13805;SDS011;6974;53.606;9.872;2023-04-25T04:53:06;11.60;;;4.10;;
13805;SDS011;6974;53.606;9.872;2023-04-25T04:55:34;10.73;;;3.60;;
13805;SDS011;6974;53.606;9.872;2023-04-25T04:58:00;13.97;;;4.10;;
13805;SDS011;6974;53.606;9.872;2023-04-25T05:00:29;15.60;;;4.60;;
13805;SDS011;6974;53.606;9.872;2023-04-25T05:02:57;12.67;;;3.80;;
13805;SDS011;6974;53.606;9.872;2023-04-25T05:05:25;17.77;;;4.63;;
13805;SDS011;6974;53.606;9.872;2023-04-25T05:07:54;12.37;;;4.10;;
13805;SDS011;6974;53.606;9.872;2023-04-25T05:10:22;12.83;;;4.10;;
13805;SDS011;6974;53.606;9.872;2023-04-25T05:12:50;13.53;;;4.57;;
13805;SDS011;6974;53.606;9.872;2023-04-25T05:15:17;11.03;;;3.97;;
13805;SDS011;6974;53.606;9.872;2023-04-25T05:17:45;13.13;;;4.13;;
13805;SDS011;6974;53.606;9.872;2023-04-25T05:20:12;15.60;;;4.27;;
13805;SDS011;6974;53.606;9.872;2023-04-25T05:22:42;11.07;;;3.77;;
13805;SDS011;6974;53.606;9.872;2023-04-25T05:25:09;10.37;;;3.57;;
13805;SDS011;6974;53.606;9.872;2023-04-25T05:27:37;15.07;;;4.23;;
13805;SDS011;6974;53.606;9.872;2023-04-25T05:30:05;14.00;;;4.80;;
13805;SDS011;6974;53.606;9.872;2023-04-25T05:32:33;17.63;;;4.30;;
13805;SDS011;6974;53.606;9.872;2023-04-25T05:35:01;12.43;;;4.30;;
13805;SDS011;6974;53.606;9.872;2023-04-25T05:37:28;11.47;;;3.63;;
13805;SDS011;6974;53.606;9.872;2023-04-25T05:39:59;15.00;;;4.13;;
13805;SDS011;6974;53.606;9.872;2023-04-25T05:42:25;14.00;;;4.57;;
13805;SDS011;6974;53.606;9.872;2023-04-25T05:44:53;13.53;;;4.20;;
13805;SDS011;6974;53.606;9.872;2023-04-25T05:47:20;12.23;;;4.20;;
13805;SDS011;6974;53.606;9.872;2023-04-25T05:49:47;12.77;;;4.17;;
13805;SDS011;6974;53.606;9.872;2023-04-25T05:52:14;12.40;;;3.70;;
13805;SDS011;6974;53.606;9.872;2023-04-25T05:54:41;7.90;;;3.23;;
13805;SDS011;6974;53.606;9.872;2023-04-25T05:57:19;11.53;;;3.97;;
13805;SDS011;6974;53.606;9.872;2023-04-25T05:59:47;9.97;;;3.73;;
13805;SDS011;6974;53.606;9.872;2023-04-25T06:02:16;11.10;;;4.33;;
13805;SDS011;6974;53.606;9.872;2023-04-25T06:04:43;12.07;;;4.03;;
13805;SDS011;6974;53.606;9.872;2023-04-25T06:07:10;16.27;;;4.10;;
13805;SDS011;6974;53.606;9.872;2023-04-25T06:09:38;9.80;;;3.80;;
13805;SDS011;6974;53.606;9.872;2023-04-25T06:12:05;11.60;;;4.13;;
13805;SDS011;6974;53.606;9.872;2023-04-25T06:14:34;10.00;;;3.83;;
13805;SDS011;6974;53.606;9.872;2023-04-25T06:17:01;14.47;;;4.10;;
13805;SDS011;6974;53.606;9.872;2023-04-25T06:19:31;15.93;;;4.60;;
13805;SDS011;6974;53.606;9.872;2023-04-25T06:21:58;12.03;;;4.27;;
13805;SDS011;6974;53.606;9.872;2023-04-25T06:24:25;11.27;;;3.60;;
13805;SDS011;6974;53.606;9.872;2023-04-25T06:26:52;12.53;;;4.33;;
13805;SDS011;6974;53.606;9.872;2023-04-25T06:29:19;12.20;;;4.40;;
13805;SDS011;6974;53.606;9.872;2023-04-25T06:31:48;12.87;;;3.83;;
13805;SDS011;6974;53.606;9.872;2023-04-25T06:34:15;12.43;;;4.23;;
13805;SDS011;6974;53.606;9.872;2023-04-25T06:36:42;15.30;;;4.47;;
13805;SDS011;6974;53.606;9.872;2023-04-25T06:39:09;9.63;;;3.90;;
13805;SDS011;6974;53.606;9.872;2023-04-25T06:41:36;12.07;;;4.00;;
13805;SDS011;6974;53.606;9.872;2023-04-25T06:44:03;16.07;;;4.43;;
13805;SDS011;6974;53.606;9.872;2023-04-25T06:46:30;10.90;;;3.77;;
13805;SDS011;6974;53.606;9.872;2023-04-25T06:48:58;11.40;;;4.17;;
13805;SDS011;6974;53.606;9.872;2023-04-25T06:51:25;12.70;;;4.00;;
13805;SDS011;6974;53.606;9.872;2023-04-25T06:53:54;13.00;;;4.10;;
13805;SDS011;6974;53.606;9.872;2023-04-25T06:56:21;12.20;;;3.73;;
13805;SDS011;6974;53.606;9.872;2023-04-25T06:58:48;11.43;;;3.43;;
13805;SDS011;6974;53.606;9.872;2023-04-25T07:01:15;9.80;;;3.93;;
13805;SDS011;6974;53.606;9.872;2023-04-25T07:03:42;9.03;;;3.00;;
13805;SDS011;6974;53.606;9.872;2023-04-25T07:06:10;13.73;;;3.80;;
13805;SDS011;6974;53.606;9.872;2023-04-25T07:08:37;11.07;;;3.77;;
13805;SDS011;6974;53.606;9.872;2023-04-25T07:11:04;10.10;;;3.73;;
13805;SDS011;6974;53.606;9.872;2023-04-25T07:13:30;8.57;;;2.97;;
13805;SDS011;6974;53.606;9.872;2023-04-25T07:15:57;8.93;;;2.80;;
13805;SDS011;6974;53.606;9.872;2023-04-25T07:18:25;8.53;;;3.07;;
13805;SDS011;6974;53.606;9.872;2023-04-25T07:20:52;7.97;;;2.70;;
13805;SDS011;6974;53.606;9.872;2023-04-25T07:23:20;9.37;;;2.97;;
13805;SDS011;6974;53.606;9.872;2023-04-25T07:25:47;13.47;;;3.93;;
13805;SDS011;6974;53.606;9.872;2023-04-25T07:28:14;8.47;;;2.90;;
13805;SDS011;6974;53.606;9.872;2023-04-25T07:30:41;8.80;;;3.30;;
13805;SDS011;6974;53.606;9.872;2023-04-25T07:33:08;9.40;;;3.20;;
13805;SDS011;6974;53.606;9.872;2023-04-25T07:35:35;11.30;;;3.67;;
13805;SDS011;6974;53.606;9.872;2023-04-25T07:38:02;13.73;;;3.27;;
13805;SDS011;6974;53.606;9.872;2023-04-25T07:40:30;11.60;;;2.90;;
13805;SDS011;6974;53.606;9.872;2023-04-25T07:42:57;9.57;;;3.07;;
13805;SDS011;6974;53.606;9.872;2023-04-25T07:45:24;13.53;;;3.37;;
13805;SDS011;6974;53.606;9.872;2023-04-25T07:47:52;11.17;;;3.37;;
13805;SDS011;6974;53.606;9.872;2023-04-25T07:50:19;11.13;;;3.20;;
13805;SDS011;6974;53.606;9.872;2023-04-25T07:52:46;10.37;;;3.07;;
13805;SDS011;6974;53.606;9.872;2023-04-25T07:55:12;9.60;;;3.60;;
13805;SDS011;6974;53.606;9.872;2023-04-25T07:57:41;9.57;;;3.10;;
13805;SDS011;6974;53.606;9.872;2023-04-25T08:00:08;10.23;;;3.27;;
13805;SDS011;6974;53.606;9.872;2023-04-25T08:02:37;9.43;;;3.00;;
13805;SDS011;6974;53.606;9.872;2023-04-25T08:05:04;8.57;;;2.73;;
13805;SDS011;6974;53.606;9.872;2023-04-25T08:07:33;10.13;;;3.20;;
13805;SDS011;6974;53.606;9.872;2023-04-25T08:10:00;7.53;;;3.50;;
13805;SDS011;6974;53.606;9.872;2023-04-25T08:12:27;12.80;;;3.20;;
13805;SDS011;6974;53.606;9.872;2023-04-25T08:14:55;9.50;;;3.40;;
13805;SDS011;6974;53.606;9.872;2023-04-25T08:17:22;12.90;;;3.10;;
13805;SDS011;6974;53.606;9.872;2023-04-25T08:19:49;10.70;;;3.00;;
13805;SDS011;6974;53.606;9.872;2023-04-25T08:22:16;12.97;;;3.17;;
13805;SDS011;6974;53.606;9.872;2023-04-25T08:24:43;10.73;;;2.90;;
13805;SDS011;6974;53.606;9.872;2023-04-25T08:27:10;6.87;;;2.40;;
13805;SDS011;6974;53.606;9.872;2023-04-25T08:29:37;10.70;;;3.30;;
13805;SDS011;6974;53.606;9.872;2023-04-25T08:32:05;7.27;;;2.60;;
13805;SDS011;6974;53.606;9.872;2023-04-25T08:34:32;9.93;;;3.27;;
13805;SDS011;6974;53.606;9.872;2023-04-25T08:36:59;11.77;;;3.10;;
13805;SDS011;6974;53.606;9.872;2023-04-25T08:39:26;8.90;;;2.53;;
13805;SDS011;6974;53.606;9.872;2023-04-25T08:41:53;11.63;;;3.10;;
13805;SDS011;6974;53.606;9.872;2023-04-25T08:44:20;10.87;;;3.63;;
13805;SDS011;6974;53.606;9.872;2023-04-25T08:46:48;9.20;;;2.80;;
13805;SDS011;6974;53.606;9.872;2023-04-25T08:49:17;11.27;;;3.10;;
13805;SDS011;6974;53.606;9.872;2023-04-25T08:51:45;11.97;;;3.10;;
13805;SDS011;6974;53.606;9.872;2023-04-25T08:54:14;8.83;;;2.97;;
13805;SDS011;6974;53.606;9.872;2023-04-25T08:56:41;10.00;;;3.00;;
13805;SDS011;6974;53.606;9.872;2023-04-25T08:59:11;7.90;;;2.70;;
13805;SDS011;6974;53.606;9.872;2023-04-25T09:01:38;7.97;;;2.47;;
13805;SDS011;6974;53.606;9.872;2023-04-25T09:04:05;9.27;;;2.07;;
13805;SDS011;6974;53.606;9.872;2023-04-25T09:06:34;6.30;;;2.00;;
13805;SDS011;6974;53.606;9.872;2023-04-25T09:09:02;7.23;;;2.37;;
13805;SDS011;6974;53.606;9.872;2023-04-25T09:11:30;8.93;;;2.43;;
13805;SDS011;6974;53.606;9.872;2023-04-25T09:14:09;4.90;;;2.00;;
13805;SDS011;6974;53.606;9.872;2023-04-25T09:16:47;7.90;;;2.40;;
13805;SDS011;6974;53.606;9.872;2023-04-25T09:19:25;8.83;;;2.50;;
13805;SDS011;6974;53.606;9.872;2023-04-25T09:21:55;4.93;;;2.30;;
13805;SDS011;6974;53.606;9.872;2023-04-25T09:24:33;8.93;;;2.60;;
13805;SDS011;6974;53.606;9.872;2023-04-25T09:27:02;5.37;;;2.50;;
13805;SDS011;6974;53.606;9.872;2023-04-25T09:29:30;8.97;;;2.77;;
13805;SDS011;6974;53.606;9.872;2023-04-25T09:32:10;6.50;;;2.50;;
13805;SDS011;6974;53.606;9.872;2023-04-25T09:34:39;5.97;;;2.07;;
13805;SDS011;6974;53.606;9.872;2023-04-25T09:37:09;7.43;;;2.73;;
13805;SDS011;6974;53.606;9.872;2023-04-25T09:39:37;8.83;;;2.77;;
13805;SDS011;6974;53.606;9.872;2023-04-25T09:42:04;10.03;;;2.83;;
13805;SDS011;6974;53.606;9.872;2023-04-25T09:44:31;9.07;;;2.93;;
13805;SDS011;6974;53.606;9.872;2023-04-25T09:46:58;11.87;;;3.13;;
13805;SDS011;6974;53.606;9.872;2023-04-25T09:49:25;10.77;;;3.00;;
13805;SDS011;6974;53.606;9.872;2023-04-25T09:51:54;8.63;;;2.80;;
13805;SDS011;6974;53.606;9.872;2023-04-25T09:54:23;10.73;;;2.57;;
13805;SDS011;6974;53.606;9.872;2023-04-25T09:56:51;9.30;;;2.70;;
13805;SDS011;6974;53.606;9.872;2023-04-25T09:59:19;10.47;;;3.07;;
13805;SDS011;6974;53.606;9.872;2023-04-25T10:01:47;8.87;;;2.67;;
13805;SDS011;6974;53.606;9.872;2023-04-25T10:04:16;6.67;;;2.57;;
13805;SDS011;6974;53.606;9.872;2023-04-25T10:06:49;9.43;;;2.33;;
13805;SDS011;6974;53.606;9.872;2023-04-25T10:09:17;7.03;;;2.80;;
13805;SDS011;6974;53.606;9.872;2023-04-25T10:11:47;8.43;;;2.07;;
13805;SDS011;6974;53.606;9.872;2023-04-25T10:14:15;5.47;;;2.10;;
13805;SDS011;6974;53.606;9.872;2023-04-25T10:16:42;5.93;;;2.20;;
13805;SDS011;6974;53.606;9.872;2023-04-25T10:19:10;7.00;;;2.23;;
13805;SDS011;6974;53.606;9.872;2023-04-25T10:21:37;8.37;;;2.43;;
13805;SDS011;6974;53.606;9.872;2023-04-25T10:24:12;9.30;;;2.80;;
13805;SDS011;6974;53.606;9.872;2023-04-25T10:26:40;7.20;;;3.10;;
13805;SDS011;6974;53.606;9.872;2023-04-25T10:29:09;8.30;;;2.80;;
13805;SDS011;6974;53.606;9.872;2023-04-25T10:31:44;8.60;;;2.47;;
13805;SDS011;6974;53.606;9.872;2023-04-25T10:34:12;6.60;;;2.67;;
13805;SDS011;6974;53.606;9.872;2023-04-25T10:36:39;8.40;;;2.60;;
13805;SDS011;6974;53.606;9.872;2023-04-25T10:39:06;7.30;;;2.80;;
13805;SDS011;6974;53.606;9.872;2023-04-25T10:41:45;6.77;;;2.37;;
13805;SDS011;6974;53.606;9.872;2023-04-25T10:44:14;11.50;;;2.67;;
13805;SDS011;6974;53.606;9.872;2023-04-25T10:46:41;7.17;;;2.47;;
13805;SDS011;6974;53.606;9.872;2023-04-25T10:49:10;6.30;;;2.17;;
13805;SDS011;6974;53.606;9.872;2023-04-25T10:51:58;5.47;;;2.63;;
13805;SDS011;6974;53.606;9.872;2023-04-25T10:54:40;6.57;;;2.63;;
13805;SDS011;6974;53.606;9.872;2023-04-25T10:57:07;6.20;;;2.50;;
13805;SDS011;6974;53.606;9.872;2023-04-25T10:59:55;6.50;;;2.10;;
13805;SDS011;6974;53.606;9.872;2023-04-25T11:02:26;6.20;;;2.30;;
13805;SDS011;6974;53.606;9.872;2023-04-25T11:04:53;15.50;;;2.63;;
13805;SDS011;6974;53.606;9.872;2023-04-25T11:07:23;6.60;;;2.23;;
13805;SDS011;6974;53.606;9.872;2023-04-25T11:10:01;6.37;;;1.97;;
13805;SDS011;6974;53.606;9.872;2023-04-25T11:12:29;5.63;;;2.27;;
13805;SDS011;6974;53.606;9.872;2023-04-25T11:15:01;6.37;;;2.20;;
13805;SDS011;6974;53.606;9.872;2023-04-25T11:17:29;8.53;;;2.30;;
13805;SDS011;6974;53.606;9.872;2023-04-25T11:19:56;7.93;;;2.33;;
13805;SDS011;6974;53.606;9.872;2023-04-25T11:22:23;6.30;;;2.10;;
13805;SDS011;6974;53.606;9.872;2023-04-25T11:24:50;5.43;;;2.00;;
13805;SDS011;6974;53.606;9.872;2023-04-25T11:27:17;10.07;;;2.73;;
13805;SDS011;6974;53.606;9.872;2023-04-25T11:29:44;6.00;;;1.80;;
13805;SDS011;6974;53.606;9.872;2023-04-25T11:32:14;7.30;;;2.40;;
13805;SDS011;6974;53.606;9.872;2023-04-25T11:34:43;7.70;;;2.33;;
13805;SDS011;6974;53.606;9.872;2023-04-25T11:37:11;4.50;;;2.07;;
13805;SDS011;6974;53.606;9.872;2023-04-25T11:39:39;4.43;;;2.07;;
13805;SDS011;6974;53.606;9.872;2023-04-25T11:42:10;4.23;;;2.10;;
13805;SDS011;6974;53.606;9.872;2023-04-25T11:44:37;8.57;;;2.47;;
13805;SDS011;6974;53.606;9.872;2023-04-25T11:47:05;7.93;;;2.23;;
13805;SDS011;6974;53.606;9.872;2023-04-25T11:49:33;6.40;;;2.67;;
13805;SDS011;6974;53.606;9.872;2023-04-25T11:52:01;4.30;;;2.13;;
13805;SDS011;6974;53.606;9.872;2023-04-25T11:54:29;5.53;;;2.13;;
13805;SDS011;6974;53.606;9.872;2023-04-25T11:56:55;4.87;;;1.97;;
13805;SDS011;6974;53.606;9.872;2023-04-25T11:59:23;3.87;;;1.93;;
13805;SDS011;6974;53.606;9.872;2023-04-25T12:01:51;5.60;;;2.13;;
13805;SDS011;6974;53.606;9.872;2023-04-25T12:04:19;4.13;;;1.70;;
13805;SDS011;6974;53.606;9.872;2023-04-25T12:06:48;4.00;;;1.53;;
13805;SDS011;6974;53.606;9.872;2023-04-25T12:09:16;4.70;;;1.33;;
13805;SDS011;6974;53.606;9.872;2023-04-25T12:11:46;5.03;;;2.20;;
13805;SDS011;6974;53.606;9.872;2023-04-25T12:14:20;6.73;;;2.13;;
13805;SDS011;6974;53.606;9.872;2023-04-25T12:16:49;6.43;;;2.40;;
13805;SDS011;6974;53.606;9.872;2023-04-25T12:19:17;5.73;;;2.67;;
13805;SDS011;6974;53.606;9.872;2023-04-25T12:21:46;4.97;;;2.07;;
13805;SDS011;6974;53.606;9.872;2023-04-25T12:24:15;4.77;;;1.80;;
13805;SDS011;6974;53.606;9.872;2023-04-25T12:26:50;3.97;;;2.03;;
13805;SDS011;6974;53.606;9.872;2023-04-25T12:29:18;4.13;;;1.77;;
13805;SDS011;6974;53.606;9.872;2023-04-25T12:31:46;4.57;;;1.90;;
13805;SDS011;6974;53.606;9.872;2023-04-25T12:34:13;5.43;;;1.90;;
13805;SDS011;6974;53.606;9.872;2023-04-25T12:36:40;3.53;;;2.10;;
13805;SDS011;6974;53.606;9.872;2023-04-25T12:39:09;4.73;;;2.07;;
13805;SDS011;6974;53.606;9.872;2023-04-25T12:41:41;4.93;;;2.37;;
13805;SDS011;6974;53.606;9.872;2023-04-25T12:44:07;5.93;;;2.20;;
13805;SDS011;6974;53.606;9.872;2023-04-25T12:46:35;4.23;;;2.40;;
13805;SDS011;6974;53.606;9.872;2023-04-25T12:49:02;6.20;;;2.40;;
13805;SDS011;6974;53.606;9.872;2023-04-25T12:51:29;6.07;;;1.73;;
13805;SDS011;6974;53.606;9.872;2023-04-25T12:53:57;7.30;;;2.00;;
13805;SDS011;6974;53.606;9.872;2023-04-25T12:56:26;5.43;;;2.37;;
13805;SDS011;6974;53.606;9.872;2023-04-25T12:58:53;3.33;;;1.63;;
13805;SDS011;6974;53.606;9.872;2023-04-25T13:01:19;8.30;;;2.60;;
13805;SDS011;6974;53.606;9.872;2023-04-25T13:03:46;7.70;;;2.27;;
13805;SDS011;6974;53.606;9.872;2023-04-25T13:06:13;6.23;;;2.47;;
13805;SDS011;6974;53.606;9.872;2023-04-25T13:08:40;6.67;;;2.57;;
13805;SDS011;6974;53.606;9.872;2023-04-25T13:11:07;5.90;;;2.20;;
13805;SDS011;6974;53.606;9.872;2023-04-25T13:13:36;5.17;;;2.20;;
13805;SDS011;6974;53.606;9.872;2023-04-25T13:16:04;6.67;;;2.20;;
13805;SDS011;6974;53.606;9.872;2023-04-25T13:18:32;5.40;;;2.10;;
13805;SDS011;6974;53.606;9.872;2023-04-25T13:20:59;5.83;;;2.43;;
13805;SDS011;6974;53.606;9.872;2023-04-25T13:23:27;5.73;;;2.40;;
13805;SDS011;6974;53.606;9.872;2023-04-25T13:25:55;4.50;;;2.00;;
13805;SDS011;6974;53.606;9.872;2023-04-25T13:28:22;6.40;;;2.37;;
13805;SDS011;6974;53.606;9.872;2023-04-25T13:30:50;5.80;;;2.37;;
13805;SDS011;6974;53.606;9.872;2023-04-25T13:33:17;10.97;;;2.80;;
13805;SDS011;6974;53.606;9.872;2023-04-25T13:35:45;7.83;;;2.37;;
13805;SDS011;6974;53.606;9.872;2023-04-25T13:38:18;7.37;;;3.00;;
13805;SDS011;6974;53.606;9.872;2023-04-25T13:40:46;6.97;;;2.80;;
13805;SDS011;6974;53.606;9.872;2023-04-25T13:43:12;8.43;;;2.53;;
13805;SDS011;6974;53.606;9.872;2023-04-25T13:45:39;7.07;;;2.20;;
13805;SDS011;6974;53.606;9.872;2023-04-25T13:48:08;5.20;;;2.20;;
13805;SDS011;6974;53.606;9.872;2023-04-25T13:50:34;5.47;;;2.37;;
13805;SDS011;6974;53.606;9.872;2023-04-25T13:53:01;5.00;;;2.27;;
13805;SDS011;6974;53.606;9.872;2023-04-25T13:55:28;4.70;;;1.87;;
13805;SDS011;6974;53.606;9.872;2023-04-25T13:57:55;6.03;;;2.17;;
13805;SDS011;6974;53.606;9.872;2023-04-25T14:00:22;5.83;;;2.20;;
13805;SDS011;6974;53.606;9.872;2023-04-25T14:02:49;5.77;;;2.60;;
13805;SDS011;6974;53.606;9.872;2023-04-25T14:05:17;8.33;;;2.33;;
13805;SDS011;6974;53.606;9.872;2023-04-25T14:07:44;9.20;;;2.53;;
13805;SDS011;6974;53.606;9.872;2023-04-25T14:10:11;8.37;;;2.43;;
13805;SDS011;6974;53.606;9.872;2023-04-25T14:12:37;9.77;;;2.87;;
13805;SDS011;6974;53.606;9.872;2023-04-25T14:15:05;6.63;;;2.53;;
13805;SDS011;6974;53.606;9.872;2023-04-25T14:17:32;6.50;;;2.70;;
13805;SDS011;6974;53.606;9.872;2023-04-25T14:19:59;7.57;;;2.80;;
13805;SDS011;6974;53.606;9.872;2023-04-25T14:22:27;11.40;;;2.60;;
13805;SDS011;6974;53.606;9.872;2023-04-25T14:24:54;8.10;;;2.30;;
13805;SDS011;6974;53.606;9.872;2023-04-25T14:27:21;5.27;;;2.03;;
13805;SDS011;6974;53.606;9.872;2023-04-25T14:29:48;4.43;;;2.27;;
13805;SDS011;6974;53.606;9.872;2023-04-25T14:32:14;5.57;;;2.10;;
13805;SDS011;6974;53.606;9.872;2023-04-25T14:34:41;6.20;;;2.40;;
13805;SDS011;6974;53.606;9.872;2023-04-25T14:37:08;9.13;;;2.37;;
13805;SDS011;6974;53.606;9.872;2023-04-25T14:39:36;6.83;;;2.20;;
13805;SDS011;6974;53.606;9.872;2023-04-25T14:42:03;8.27;;;2.37;;
13805;SDS011;6974;53.606;9.872;2023-04-25T14:44:30;5.27;;;2.00;;
13805;SDS011;6974;53.606;9.872;2023-04-25T14:46:57;5.27;;;2.70;;
13805;SDS011;6974;53.606;9.872;2023-04-25T14:49:24;8.03;;;2.30;;
13805;SDS011;6974;53.606;9.872;2023-04-25T14:51:50;6.93;;;2.10;;
13805;SDS011;6974;53.606;9.872;2023-04-25T14:54:17;4.30;;;2.03;;
13805;SDS011;6974;53.606;9.872;2023-04-25T14:56:45;6.03;;;2.23;;
13805;SDS011;6974;53.606;9.872;2023-04-25T14:59:12;7.20;;;3.00;;